sensor_id;sensor_type;location;lat;lon;timestamp;pressure;altitude;pressure_sealevel;temperature;humidity
14089;BME280;7120;52.890;6.040;2023-02-04T00:00:13;103103.22;;;8.03;85.14
14089;BME280;7120;52.890;6.040;2023-02-04T00:02:40;103099.66;;;8.02;85.22
14089;BME280;7120;52.890;6.040;2023-02-04T00:05:06;103107.81;;;8.20;84.09
14089;BME280;7120;52.890;6.040;2023-02-04T00:07:32;103087.34;;;7.99;85.05
14089;BME280;7120;52.890;6.040;2023-02-04T00:09:57;103100.88;;;8.06;84.80
14089;BME280;7120;52.890;6.040;2023-02-04T00:12:23;103115.19;;;8.20;84.31
14089;BME280;7120;52.890;6.040;2023-02-04T00:14:48;103113.69;;;8.06;85.03
14089;BME280;7120;52.890;6.040;2023-02-04T00:17:13;103118.97;;;8.01;84.36
14089;BME280;7120;52.890;6.040;2023-02-04T00:19:39;103114.19;;;7.96;85.11
14089;BME280;7120;52.890;6.040;2023-02-04T00:22:05;103126.25;;;7.88;84.85
14089;BME280;7120;52.890;6.040;2023-02-04T00:24:35;103120.94;;;7.75;85.81
14089;BME280;7120;52.890;6.040;2023-02-04T00:27:02;103134.38;;;7.77;85.71
14089;BME280;7120;52.890;6.040;2023-02-04T00:29:27;103129.13;;;7.75;85.44
14089;BME280;7120;52.890;6.040;2023-02-04T00:31:53;103126.84;;;7.72;85.98
14089;BME280;7120;52.890;6.040;2023-02-04T00:34:18;103138.22;;;7.69;84.95
14089;BME280;7120;52.890;6.040;2023-02-04T00:36:45;103140.44;;;7.54;85.75
14089;BME280;7120;52.890;6.040;2023-02-04T00:39:10;103149.84;;;7.58;86.45
14089;BME280;7120;52.890;6.040;2023-02-04T00:41:36;103150.91;;;7.57;86.74
14089;BME280;7120;52.890;6.040;2023-02-04T00:44:03;103153.88;;;7.55;86.77
14089;BME280;7120;52.890;6.040;2023-02-04T00:46:28;103149.91;;;7.51;86.54
14089;BME280;7120;52.890;6.040;2023-02-04T00:48:53;103134.00;;;7.30;86.18
14089;BME280;7120;52.890;6.040;2023-02-04T00:51:19;103148.00;;;7.33;87.39
14089;BME280;7120;52.890;6.040;2023-02-04T00:53:44;103157.72;;;7.48;86.99
14089;BME280;7120;52.890;6.040;2023-02-04T00:56:10;103161.97;;;7.62;85.73
14089;BME280;7120;52.890;6.040;2023-02-04T00:58:36;103159.06;;;7.57;86.28
14089;BME280;7120;52.890;6.040;2023-02-04T01:01:02;103158.25;;;7.75;85.77
14089;BME280;7120;52.890;6.040;2023-02-04T01:03:27;103160.66;;;7.64;85.36
14089;BME280;7120;52.890;6.040;2023-02-04T01:05:53;103166.41;;;7.75;85.35
14089;BME280;7120;52.890;6.040;2023-02-04T01:08:18;103160.84;;;7.69;85.12
14089;BME280;7120;52.890;6.040;2023-02-04T01:10:43;103171.78;;;7.63;85.61
14089;BME280;7120;52.890;6.040;2023-02-04T01:13:09;103170.41;;;7.54;85.75
14089;BME280;7120;52.890;6.040;2023-02-04T01:15:34;103166.91;;;7.47;85.74
14089;BME280;7120;52.890;6.040;2023-02-04T01:18:00;103170.50;;;7.47;85.94
14089;BME280;7120;52.890;6.040;2023-02-04T01:20:25;103173.41;;;7.46;85.72
14089;BME280;7120;52.890;6.040;2023-02-04T01:22:51;103176.81;;;7.41;86.46
14089;BME280;7120;52.890;6.040;2023-02-04T01:25:16;103186.59;;;7.49;86.38
14089;BME280;7120;52.890;6.040;2023-02-04T01:27:43;103190.88;;;7.38;85.92
14089;BME280;7120;52.890;6.040;2023-02-04T01:30:10;103191.50;;;7.40;86.62
14089;BME280;7120;52.890;6.040;2023-02-04T01:32:36;103195.19;;;7.46;86.22
14089;BME280;7120;52.890;6.040;2023-02-04T01:35:02;103197.44;;;7.55;86.13
14089;BME280;7120;52.890;6.040;2023-02-04T01:37:27;103214.06;;;7.47;86.30
14089;BME280;7120;52.890;6.040;2023-02-04T01:39:52;103211.03;;;7.55;86.32
14089;BME280;7120;52.890;6.040;2023-02-04T01:42:18;103218.47;;;7.66;86.38
14089;BME280;7120;52.890;6.040;2023-02-04T01:44:44;103221.53;;;7.77;85.73
14089;BME280;7120;52.890;6.040;2023-02-04T01:47:09;103215.69;;;7.73;85.71
14089;BME280;7120;52.890;6.040;2023-02-04T01:49:35;103222.97;;;7.79;85.53
14089;BME280;7120;52.890;6.040;2023-02-04T01:52:01;103225.75;;;7.72;86.81
14089;BME280;7120;52.890;6.040;2023-02-04T01:54:27;103231.28;;;7.84;85.64
14089;BME280;7120;52.890;6.040;2023-02-04T01:56:53;103229.16;;;7.86;86.03
14089;BME280;7120;52.890;6.040;2023-02-04T01:59:20;103220.94;;;7.93;85.34
14089;BME280;7120;52.890;6.040;2023-02-04T02:01:48;103216.31;;;7.93;85.08
14089;BME280;7120;52.890;6.040;2023-02-04T02:04:20;103229.94;;;7.93;85.51
14089;BME280;7120;52.890;6.040;2023-02-04T02:06:54;103229.69;;;7.95;85.86
14089;BME280;7120;52.890;6.040;2023-02-04T02:09:22;103234.50;;;7.99;85.03
14089;BME280;7120;52.890;6.040;2023-02-04T02:11:47;103229.34;;;7.91;85.06
14089;BME280;7120;52.890;6.040;2023-02-04T02:14:13;103229.41;;;8.03;85.21
14089;BME280;7120;52.890;6.040;2023-02-04T02:16:39;103235.72;;;8.04;84.63
14089;BME280;7120;52.890;6.040;2023-02-04T02:19:06;103230.47;;;8.02;85.01
14089;BME280;7120;52.890;6.040;2023-02-04T02:21:49;103238.34;;;8.10;85.29
14089;BME280;7120;52.890;6.040;2023-02-04T02:26:51;103227.44;;;8.10;84.48
14089;BME280;7120;52.890;6.040;2023-02-04T02:29:17;103227.38;;;8.17;84.87
14089;BME280;7120;52.890;6.040;2023-02-04T02:31:43;103243.88;;;8.22;84.14
14089;BME280;7120;52.890;6.040;2023-02-04T02:34:08;103229.81;;;8.07;84.95
14089;BME280;7120;52.890;6.040;2023-02-04T02:36:34;103232.63;;;8.18;84.64
14089;BME280;7120;52.890;6.040;2023-02-04T02:38:59;103244.28;;;8.25;84.39
14089;BME280;7120;52.890;6.040;2023-02-04T02:41:25;103247.50;;;8.16;84.48
14089;BME280;7120;52.890;6.040;2023-02-04T02:43:50;103246.59;;;8.22;84.74
14089;BME280;7120;52.890;6.040;2023-02-04T02:46:16;103249.56;;;8.20;85.04
14089;BME280;7120;52.890;6.040;2023-02-04T02:48:41;103249.41;;;8.15;84.85
14089;BME280;7120;52.890;6.040;2023-02-04T02:51:07;103242.00;;;8.04;85.54
14089;BME280;7120;52.890;6.040;2023-02-04T02:53:32;103260.47;;;8.20;84.88
14089;BME280;7120;52.890;6.040;2023-02-04T02:55:58;103248.13;;;7.99;85.62
14089;BME280;7120;52.890;6.040;2023-02-04T02:58:34;103255.22;;;8.01;85.96
14089;BME280;7120;52.890;6.040;2023-02-04T03:01:02;103255.81;;;8.03;85.65
14089;BME280;7120;52.890;6.040;2023-02-04T03:03:32;103260.06;;;7.98;86.13
14089;BME280;7120;52.890;6.040;2023-02-04T03:06:06;103260.81;;;7.87;86.37
14089;BME280;7120;52.890;6.040;2023-02-04T03:08:34;103269.25;;;7.79;87.19
14089;BME280;7120;52.890;6.040;2023-02-04T03:11:00;103268.38;;;7.85;87.34
14089;BME280;7120;52.890;6.040;2023-02-04T03:13:26;103261.44;;;7.89;86.09
14089;BME280;7120;52.890;6.040;2023-02-04T03:15:52;103274.53;;;7.74;87.11
14089;BME280;7120;52.890;6.040;2023-02-04T03:18:19;103281.00;;;7.80;86.89
14089;BME280;7120;52.890;6.040;2023-02-04T03:20:45;103281.66;;;7.75;86.65
14089;BME280;7120;52.890;6.040;2023-02-04T03:23:12;103276.19;;;7.75;87.29
14089;BME280;7120;52.890;6.040;2023-02-04T03:25:37;103281.75;;;7.87;86.86
14089;BME280;7120;52.890;6.040;2023-02-04T03:28:03;103275.00;;;7.71;86.64
14089;BME280;7120;52.890;6.040;2023-02-04T03:30:29;103288.34;;;7.79;86.70
14089;BME280;7120;52.890;6.040;2023-02-04T03:32:55;103286.31;;;7.68;86.24
14089;BME280;7120;52.890;6.040;2023-02-04T03:35:20;103278.38;;;7.66;87.12
14089;BME280;7120;52.890;6.040;2023-02-04T03:37:46;103296.50;;;7.79;87.33
14089;BME280;7120;52.890;6.040;2023-02-04T03:40:12;103300.06;;;7.80;86.35
14089;BME280;7120;52.890;6.040;2023-02-04T03:42:38;103296.22;;;7.87;86.24
14089;BME280;7120;52.890;6.040;2023-02-04T03:45:04;103293.56;;;7.81;86.07
14089;BME280;7120;52.890;6.040;2023-02-04T03:47:29;103290.50;;;7.70;86.83
14089;BME280;7120;52.890;6.040;2023-02-04T03:49:56;103293.19;;;7.77;86.66
14089;BME280;7120;52.890;6.040;2023-02-04T03:52:22;103290.69;;;7.76;86.49
14089;BME280;7120;52.890;6.040;2023-02-04T03:54:47;103298.81;;;7.82;86.59
14089;BME280;7120;52.890;6.040;2023-02-04T03:57:13;103307.84;;;7.76;86.98
14089;BME280;7120;52.890;6.040;2023-02-04T03:59:40;103264.88;;;7.53;86.76
14089;BME280;7120;52.890;6.040;2023-02-04T04:02:06;103303.91;;;7.72;87.41
14089;BME280;7120;52.890;6.040;2023-02-04T04:04:31;103293.59;;;7.74;87.20
14089;BME280;7120;52.890;6.040;2023-02-04T04:06:56;103293.56;;;7.81;86.44
14089;BME280;7120;52.890;6.040;2023-02-04T04:09:22;103298.44;;;7.72;86.70
14089;BME280;7120;52.890;6.040;2023-02-04T04:11:47;103298.91;;;7.69;87.05
14089;BME280;7120;52.890;6.040;2023-02-04T04:14:12;103301.00;;;7.67;86.71
14089;BME280;7120;52.890;6.040;2023-02-04T04:16:38;103312.13;;;7.65;86.67
14089;BME280;7120;52.890;6.040;2023-02-04T04:19:03;103313.69;;;7.55;87.80
14089;BME280;7120;52.890;6.040;2023-02-04T04:21:28;103319.63;;;7.38;88.11
14089;BME280;7120;52.890;6.040;2023-02-04T04:23:55;103322.31;;;7.45;88.66
14089;BME280;7120;52.890;6.040;2023-02-04T04:26:20;103333.28;;;7.32;89.28
14089;BME280;7120;52.890;6.040;2023-02-04T04:28:46;103325.75;;;7.34;89.61
14089;BME280;7120;52.890;6.040;2023-02-04T04:31:11;103322.41;;;7.32;89.80
14089;BME280;7120;52.890;6.040;2023-02-04T04:33:37;103333.66;;;7.42;89.06
14089;BME280;7120;52.890;6.040;2023-02-04T04:36:03;103345.66;;;7.34;89.62
14089;BME280;7120;52.890;6.040;2023-02-04T04:38:29;103341.88;;;7.35;89.76
14089;BME280;7120;52.890;6.040;2023-02-04T04:40:54;103333.47;;;7.37;89.47
14089;BME280;7120;52.890;6.040;2023-02-04T04:43:19;103344.00;;;7.58;88.77
14089;BME280;7120;52.890;6.040;2023-02-04T04:45:45;103352.03;;;7.47;88.53
14089;BME280;7120;52.890;6.040;2023-02-04T04:48:10;103359.91;;;7.30;89.49
14089;BME280;7120;52.890;6.040;2023-02-04T04:50:36;103353.38;;;7.37;89.25
14089;BME280;7120;52.890;6.040;2023-02-04T04:53:01;103366.34;;;7.42;89.83
14089;BME280;7120;52.890;6.040;2023-02-04T04:55:27;103369.03;;;7.49;90.01
14089;BME280;7120;52.890;6.040;2023-02-04T04:57:52;103361.22;;;7.52;89.01
14089;BME280;7120;52.890;6.040;2023-02-04T05:00:19;103354.06;;;7.58;89.39
14089;BME280;7120;52.890;6.040;2023-02-04T05:02:45;103358.13;;;7.49;89.10
14089;BME280;7120;52.890;6.040;2023-02-04T05:05:10;103347.53;;;7.65;88.77
14089;BME280;7120;52.890;6.040;2023-02-04T05:07:36;103359.25;;;7.66;89.18
14089;BME280;7120;52.890;6.040;2023-02-04T05:10:02;103368.91;;;7.68;88.53
14089;BME280;7120;52.890;6.040;2023-02-04T05:12:28;103349.69;;;7.57;89.73
14089;BME280;7120;52.890;6.040;2023-02-04T05:14:53;103363.88;;;7.65;88.99
14089;BME280;7120;52.890;6.040;2023-02-04T05:17:19;103368.47;;;7.65;89.67
14089;BME280;7120;52.890;6.040;2023-02-04T05:19:44;103365.41;;;7.55;89.30
14089;BME280;7120;52.890;6.040;2023-02-04T05:22:10;103370.88;;;7.55;90.01
14089;BME280;7120;52.890;6.040;2023-02-04T05:24:35;103371.69;;;7.55;90.27
14089;BME280;7120;52.890;6.040;2023-02-04T05:27:00;103377.16;;;7.55;89.32
14089;BME280;7120;52.890;6.040;2023-02-04T05:29:26;103354.56;;;7.48;89.31
14089;BME280;7120;52.890;6.040;2023-02-04T05:31:51;103359.19;;;7.48;89.31
14089;BME280;7120;52.890;6.040;2023-02-04T05:34:16;103385.06;;;7.63;89.56
14089;BME280;7120;52.890;6.040;2023-02-04T05:36:42;103381.25;;;7.64;89.20
14089;BME280;7120;52.890;6.040;2023-02-04T05:39:07;103371.09;;;7.47;89.57
14089;BME280;7120;52.890;6.040;2023-02-04T05:41:32;103376.28;;;7.61;90.11
14089;BME280;7120;52.890;6.040;2023-02-04T05:43:58;103390.00;;;7.73;88.39
14089;BME280;7120;52.890;6.040;2023-02-04T05:46:23;103389.72;;;7.81;87.89
14089;BME280;7120;52.890;6.040;2023-02-04T05:48:49;103392.59;;;7.93;87.79
14089;BME280;7120;52.890;6.040;2023-02-04T05:51:14;103386.31;;;7.92;87.71
14089;BME280;7120;52.890;6.040;2023-02-04T05:53:39;103378.69;;;7.76;87.33
14089;BME280;7120;52.890;6.040;2023-02-04T05:56:05;103388.06;;;7.80;87.94
14089;BME280;7120;52.890;6.040;2023-02-04T05:58:31;103395.69;;;7.71;88.56
14089;BME280;7120;52.890;6.040;2023-02-04T06:01:00;103406.28;;;7.55;89.03
14089;BME280;7120;52.890;6.040;2023-02-04T06:03:26;103410.72;;;7.42;89.25
14089;BME280;7120;52.890;6.040;2023-02-04T06:05:51;103407.63;;;7.70;88.78
14089;BME280;7120;52.890;6.040;2023-02-04T06:08:17;103425.44;;;7.66;88.93
14089;BME280;7120;52.890;6.040;2023-02-04T06:10:42;103412.94;;;7.90;88.99
14089;BME280;7120;52.890;6.040;2023-02-04T06:13:08;103412.22;;;8.02;87.16
14089;BME280;7120;52.890;6.040;2023-02-04T06:15:33;103420.56;;;8.07;87.78
14089;BME280;7120;52.890;6.040;2023-02-04T06:17:59;103426.28;;;7.98;86.33
14089;BME280;7120;52.890;6.040;2023-02-04T06:20:24;103415.06;;;7.82;87.55
14089;BME280;7120;52.890;6.040;2023-02-04T06:22:50;103393.28;;;7.50;87.62
14089;BME280;7120;52.890;6.040;2023-02-04T06:25:19;103430.81;;;7.80;88.40
14089;BME280;7120;52.890;6.040;2023-02-04T06:27:44;103434.09;;;7.57;88.35
14089;BME280;7120;52.890;6.040;2023-02-04T06:30:11;103432.03;;;7.52;89.16
14089;BME280;7120;52.890;6.040;2023-02-04T06:32:36;103440.16;;;7.59;89.91
14089;BME280;7120;52.890;6.040;2023-02-04T06:35:02;103437.06;;;7.55;89.06
14089;BME280;7120;52.890;6.040;2023-02-04T06:37:27;103449.22;;;7.46;89.63
14089;BME280;7120;52.890;6.040;2023-02-04T06:39:53;103455.72;;;7.45;90.25
14089;BME280;7120;52.890;6.040;2023-02-04T06:42:19;103456.78;;;7.44;89.33
14089;BME280;7120;52.890;6.040;2023-02-04T06:44:45;103441.53;;;7.36;90.17
14089;BME280;7120;52.890;6.040;2023-02-04T06:47:10;103461.69;;;7.67;89.46
14089;BME280;7120;52.890;6.040;2023-02-04T06:49:35;103452.03;;;7.71;88.93
14089;BME280;7120;52.890;6.040;2023-02-04T06:52:01;103447.47;;;7.65;88.08
14089;BME280;7120;52.890;6.040;2023-02-04T06:54:26;103459.66;;;7.56;88.04
14089;BME280;7120;52.890;6.040;2023-02-04T06:56:51;103461.16;;;7.45;88.25
14089;BME280;7120;52.890;6.040;2023-02-04T06:59:17;103468.16;;;7.28;89.39
14089;BME280;7120;52.890;6.040;2023-02-04T07:01:42;103457.44;;;7.39;89.10
14089;BME280;7120;52.890;6.040;2023-02-04T07:04:08;103471.41;;;7.56;87.91
14089;BME280;7120;52.890;6.040;2023-02-04T07:06:33;103469.31;;;7.52;86.98
14089;BME280;7120;52.890;6.040;2023-02-04T07:08:59;103466.91;;;7.30;87.39
14089;BME280;7120;52.890;6.040;2023-02-04T07:11:24;103473.16;;;7.37;87.79
14089;BME280;7120;52.890;6.040;2023-02-04T07:13:49;103470.56;;;6.98;88.60
14089;BME280;7120;52.890;6.040;2023-02-04T07:16:15;103481.66;;;6.89;88.93
14089;BME280;7120;52.890;6.040;2023-02-04T07:18:40;103481.66;;;6.96;89.14
14089;BME280;7120;52.890;6.040;2023-02-04T07:21:05;103473.91;;;7.06;88.48
14089;BME280;7120;52.890;6.040;2023-02-04T07:23:31;103480.59;;;6.97;88.20
14089;BME280;7120;52.890;6.040;2023-02-04T07:25:56;103490.22;;;7.06;88.22
14089;BME280;7120;52.890;6.040;2023-02-04T07:28:23;103495.22;;;7.16;88.26
14089;BME280;7120;52.890;6.040;2023-02-04T07:30:49;103487.91;;;7.03;87.82
14089;BME280;7120;52.890;6.040;2023-02-04T07:33:14;103503.22;;;6.98;87.87
14089;BME280;7120;52.890;6.040;2023-02-04T07:35:39;103503.22;;;6.98;87.95
14089;BME280;7120;52.890;6.040;2023-02-04T07:38:05;103517.00;;;7.09;87.76
14089;BME280;7120;52.890;6.040;2023-02-04T07:40:31;103517.44;;;7.06;87.98
14089;BME280;7120;52.890;6.040;2023-02-04T07:42:56;103516.41;;;6.87;88.92
14089;BME280;7120;52.890;6.040;2023-02-04T07:45:22;103519.34;;;6.86;89.50
14089;BME280;7120;52.890;6.040;2023-02-04T07:47:47;103519.75;;;6.76;87.41
14089;BME280;7120;52.890;6.040;2023-02-04T07:50:13;103524.34;;;6.89;86.33
14089;BME280;7120;52.890;6.040;2023-02-04T07:52:38;103534.00;;;6.85;86.23
14089;BME280;7120;52.890;6.040;2023-02-04T07:55:04;103530.00;;;6.81;86.76
14089;BME280;7120;52.890;6.040;2023-02-04T07:57:30;103521.03;;;6.60;86.34
14089;BME280;7120;52.890;6.040;2023-02-04T07:59:56;103541.72;;;6.88;86.50
14089;BME280;7120;52.890;6.040;2023-02-04T08:02:21;103543.81;;;6.86;85.67
14089;BME280;7120;52.890;6.040;2023-02-04T08:04:46;103539.00;;;7.01;85.91
14089;BME280;7120;52.890;6.040;2023-02-04T08:07:12;103542.31;;;7.03;84.87
14089;BME280;7120;52.890;6.040;2023-02-04T08:09:37;103533.31;;;7.03;85.33
14089;BME280;7120;52.890;6.040;2023-02-04T08:12:03;103535.22;;;7.09;85.00
14089;BME280;7120;52.890;6.040;2023-02-04T08:14:28;103546.69;;;7.24;85.04
14089;BME280;7120;52.890;6.040;2023-02-04T08:16:54;103531.84;;;7.27;84.84
14089;BME280;7120;52.890;6.040;2023-02-04T08:19:19;103552.72;;;7.39;85.21
14089;BME280;7120;52.890;6.040;2023-02-04T08:21:46;103541.22;;;7.37;85.36
14089;BME280;7120;52.890;6.040;2023-02-04T08:24:13;103565.03;;;7.62;85.11
14089;BME280;7120;52.890;6.040;2023-02-04T08:26:39;103564.22;;;7.55;84.24
14089;BME280;7120;52.890;6.040;2023-02-04T08:29:05;103564.53;;;7.78;84.57
14089;BME280;7120;52.890;6.040;2023-02-04T08:31:31;103568.00;;;7.98;84.63
14089;BME280;7120;52.890;6.040;2023-02-04T08:33:57;103574.63;;;8.09;83.59
14089;BME280;7120;52.890;6.040;2023-02-04T08:36:22;103577.19;;;8.04;85.07
14089;BME280;7120;52.890;6.040;2023-02-04T08:38:48;103581.53;;;8.18;83.76
14089;BME280;7120;52.890;6.040;2023-02-04T08:41:13;103578.13;;;8.23;84.80
14089;BME280;7120;52.890;6.040;2023-02-04T08:43:38;103576.72;;;8.14;84.29
14089;BME280;7120;52.890;6.040;2023-02-04T08:46:04;103575.34;;;8.36;84.75
14089;BME280;7120;52.890;6.040;2023-02-04T08:48:29;103569.59;;;8.76;82.86
14089;BME280;7120;52.890;6.040;2023-02-04T08:50:55;103574.38;;;8.80;82.67
14089;BME280;7120;52.890;6.040;2023-02-04T08:53:20;103582.47;;;8.69;81.63
14089;BME280;7120;52.890;6.040;2023-02-04T08:55:45;103576.59;;;8.65;82.57
14089;BME280;7120;52.890;6.040;2023-02-04T08:58:11;103584.91;;;8.77;82.01
14089;BME280;7120;52.890;6.040;2023-02-04T09:00:36;103587.31;;;8.92;81.41
14089;BME280;7120;52.890;6.040;2023-02-04T09:03:02;103592.66;;;8.80;82.12
14089;BME280;7120;52.890;6.040;2023-02-04T09:05:27;103582.63;;;8.99;82.10
14089;BME280;7120;52.890;6.040;2023-02-04T09:07:53;103595.25;;;9.18;81.64
14089;BME280;7120;52.890;6.040;2023-02-04T09:10:18;103597.16;;;9.36;80.24
14089;BME280;7120;52.890;6.040;2023-02-04T09:12:43;103596.97;;;9.56;79.82
14089;BME280;7120;52.890;6.040;2023-02-04T09:15:10;103593.59;;;9.72;78.33
14089;BME280;7120;52.890;6.040;2023-02-04T09:17:35;103604.31;;;9.92;79.34
14089;BME280;7120;52.890;6.040;2023-02-04T09:20:02;103610.50;;;10.17;76.97
14089;BME280;7120;52.890;6.040;2023-02-04T09:22:27;103605.72;;;10.13;76.75
14089;BME280;7120;52.890;6.040;2023-02-04T09:24:53;103606.72;;;10.00;77.05
14089;BME280;7120;52.890;6.040;2023-02-04T09:27:18;103608.91;;;10.28;76.30
14089;BME280;7120;52.890;6.040;2023-02-04T09:29:44;103622.22;;;10.06;75.03
14089;BME280;7120;52.890;6.040;2023-02-04T09:32:09;103624.25;;;10.11;74.28
14089;BME280;7120;52.890;6.040;2023-02-04T09:34:34;103621.53;;;9.93;75.73
14089;BME280;7120;52.890;6.040;2023-02-04T09:37:00;103630.59;;;9.75;75.64
14089;BME280;7120;52.890;6.040;2023-02-04T09:39:25;103619.81;;;9.61;76.16
14089;BME280;7120;52.890;6.040;2023-02-04T09:41:51;103633.28;;;10.11;76.39
14089;BME280;7120;52.890;6.040;2023-02-04T09:44:20;103630.66;;;9.86;74.38
14089;BME280;7120;52.890;6.040;2023-02-04T09:46:51;103627.72;;;9.88;75.36
14089;BME280;7120;52.890;6.040;2023-02-04T09:49:17;103638.16;;;9.91;74.61
14089;BME280;7120;52.890;6.040;2023-02-04T09:51:44;103630.25;;;10.19;75.09
14089;BME280;7120;52.890;6.040;2023-02-04T09:54:16;103643.09;;;10.37;74.91
14089;BME280;7120;52.890;6.040;2023-02-04T09:56:42;103639.31;;;10.02;74.33
14089;BME280;7120;52.890;6.040;2023-02-04T09:59:19;103645.06;;;10.30;74.34
14089;BME280;7120;52.890;6.040;2023-02-04T10:01:52;103648.41;;;10.62;73.40
14089;BME280;7120;52.890;6.040;2023-02-04T10:04:20;103648.69;;;10.42;73.55
14089;BME280;7120;52.890;6.040;2023-02-04T10:06:46;103655.22;;;10.41;74.43
14089;BME280;7120;52.890;6.040;2023-02-04T10:09:15;103659.91;;;10.23;73.23
14089;BME280;7120;52.890;6.040;2023-02-04T10:11:43;103649.72;;;10.60;73.46
14089;BME280;7120;52.890;6.040;2023-02-04T10:14:16;103665.75;;;10.98;71.40
14089;BME280;7120;52.890;6.040;2023-02-04T10:16:50;103673.00;;;11.04;70.48
14089;BME280;7120;52.890;6.040;2023-02-04T10:19:17;103665.28;;;11.01;70.10
14089;BME280;7120;52.890;6.040;2023-02-04T10:21:44;103673.75;;;11.11;70.66
14089;BME280;7120;52.890;6.040;2023-02-04T10:24:15;103683.53;;;10.77;67.94
14089;BME280;7120;52.890;6.040;2023-02-04T10:26:42;103670.16;;;11.11;67.74
14089;BME280;7120;52.890;6.040;2023-02-04T10:29:16;103679.31;;;11.05;68.07
14089;BME280;7120;52.890;6.040;2023-02-04T10:31:44;103678.66;;;11.33;68.16
14089;BME280;7120;52.890;6.040;2023-02-04T10:34:23;103684.28;;;11.49;66.38
14089;BME280;7120;52.890;6.040;2023-02-04T10:36:54;103673.63;;;11.76;68.62
14089;BME280;7120;52.890;6.040;2023-02-04T10:39:29;103686.03;;;11.79;64.51
14089;BME280;7120;52.890;6.040;2023-02-04T10:41:58;103679.84;;;11.95;66.98
14089;BME280;7120;52.890;6.040;2023-02-04T10:44:29;103671.22;;;12.44;65.22
14089;BME280;7120;52.890;6.040;2023-02-04T10:47:06;103670.25;;;12.50;66.33
14089;BME280;7120;52.890;6.040;2023-02-04T10:49:33;103678.09;;;12.75;64.00
14089;BME280;7120;52.890;6.040;2023-02-04T10:51:59;103674.06;;;12.94;60.16
14089;BME280;7120;52.890;6.040;2023-02-04T10:54:34;103684.59;;;12.69;62.17
14089;BME280;7120;52.890;6.040;2023-02-04T10:59:26;103680.00;;;12.57;64.12
14089;BME280;7120;52.890;6.040;2023-02-04T11:01:58;103673.72;;;12.45;63.04
14089;BME280;7120;52.890;6.040;2023-02-04T11:04:26;103680.84;;;12.75;64.00
14089;BME280;7120;52.890;6.040;2023-02-04T11:06:53;103676.22;;;13.09;61.70
14089;BME280;7120;52.890;6.040;2023-02-04T11:09:19;103680.06;;;13.08;60.66
14089;BME280;7120;52.890;6.040;2023-02-04T11:11:47;103683.22;;;13.00;61.75
14089;BME280;7120;52.890;6.040;2023-02-04T11:14:24;103682.22;;;12.32;62.10
14089;BME280;7120;52.890;6.040;2023-02-04T11:16:49;103680.53;;;12.71;62.89
14089;BME280;7120;52.890;6.040;2023-02-04T11:19:31;103685.09;;;12.82;60.37
14089;BME280;7120;52.890;6.040;2023-02-04T11:22:19;103687.63;;;13.01;60.46
14089;BME280;7120;52.890;6.040;2023-02-04T11:24:45;103676.97;;;12.87;61.02
14089;BME280;7120;52.890;6.040;2023-02-04T11:27:23;103678.31;;;12.56;62.59
14089;BME280;7120;52.890;6.040;2023-02-04T11:29:49;103677.44;;;12.39;62.88
14089;BME280;7120;52.890;6.040;2023-02-04T11:37:39;103681.00;;;12.40;61.98
14089;BME280;7120;52.890;6.040;2023-02-04T11:40:32;103671.84;;;12.05;63.06
14089;BME280;7120;52.890;6.040;2023-02-04T11:43:17;103677.25;;;12.29;63.98
14089;BME280;7120;52.890;6.040;2023-02-04T11:45:43;103679.31;;;12.50;63.27
14089;BME280;7120;52.890;6.040;2023-02-04T11:48:19;103665.63;;;13.17;60.16
14089;BME280;7120;52.890;6.040;2023-02-04T11:50:56;103679.06;;;13.31;58.39
14089;BME280;7120;52.890;6.040;2023-02-04T11:53:24;103681.00;;;13.86;57.02
14089;BME280;7120;52.890;6.040;2023-02-04T11:55:52;103678.94;;;13.76;56.79
14089;BME280;7120;52.890;6.040;2023-02-04T11:58:19;103681.97;;;13.96;56.22
14089;BME280;7120;52.890;6.040;2023-02-04T12:00:45;103668.59;;;14.05;55.33
14089;BME280;7120;52.890;6.040;2023-02-04T12:03:44;103668.59;;;13.28;58.53
14089;BME280;7120;52.890;6.040;2023-02-04T12:06:22;103674.41;;;13.48;58.18
14089;BME280;7120;52.890;6.040;2023-02-04T12:08:48;103669.06;;;13.08;59.27
14089;BME280;7120;52.890;6.040;2023-02-04T12:11:26;103679.22;;;13.58;57.33
14089;BME280;7120;52.890;6.040;2023-02-04T12:13:54;103672.53;;;14.14;55.71
14089;BME280;7120;52.890;6.040;2023-02-04T12:16:21;103667.34;;;14.62;55.51
14089;BME280;7120;52.890;6.040;2023-02-04T12:18:46;103668.91;;;14.52;52.01
14089;BME280;7120;52.890;6.040;2023-02-04T12:21:13;103656.94;;;14.69;55.86
14089;BME280;7120;52.890;6.040;2023-02-04T12:23:39;103657.25;;;15.04;53.77
14089;BME280;7120;52.890;6.040;2023-02-04T12:26:06;103669.06;;;14.68;53.95
14089;BME280;7120;52.890;6.040;2023-02-04T12:28:32;103664.44;;;15.48;51.44
14089;BME280;7120;52.890;6.040;2023-02-04T12:30:59;103667.50;;;15.14;51.31
14089;BME280;7120;52.890;6.040;2023-02-04T12:33:24;103666.78;;;14.65;52.24
14089;BME280;7120;52.890;6.040;2023-02-04T12:35:50;103642.84;;;14.65;53.32
14089;BME280;7120;52.890;6.040;2023-02-04T12:38:16;103660.22;;;14.98;52.83
14089;BME280;7120;52.890;6.040;2023-02-04T12:40:42;103662.28;;;15.13;53.36
14089;BME280;7120;52.890;6.040;2023-02-04T12:43:08;103670.56;;;14.86;52.41
14089;BME280;7120;52.890;6.040;2023-02-04T12:45:34;103673.53;;;14.74;51.34
14089;BME280;7120;52.890;6.040;2023-02-04T12:47:59;103669.19;;;14.83;50.09
14089;BME280;7120;52.890;6.040;2023-02-04T12:50:25;103668.03;;;14.79;50.46
14089;BME280;7120;52.890;6.040;2023-02-04T12:52:55;103665.28;;;14.30;50.45
14089;BME280;7120;52.890;6.040;2023-02-04T12:55:23;103675.94;;;13.99;54.91
14089;BME280;7120;52.890;6.040;2023-02-04T12:57:48;103660.84;;;13.41;53.12
14089;BME280;7120;52.890;6.040;2023-02-04T13:00:15;103672.00;;;13.35;51.27
14089;BME280;7120;52.890;6.040;2023-02-04T13:02:42;103671.09;;;13.29;54.70
14089;BME280;7120;52.890;6.040;2023-02-04T13:05:08;103670.72;;;13.81;52.30
14089;BME280;7120;52.890;6.040;2023-02-04T13:07:34;103665.88;;;13.66;53.10
14089;BME280;7120;52.890;6.040;2023-02-04T13:10:00;103660.34;;;13.28;55.04
14089;BME280;7120;52.890;6.040;2023-02-04T13:12:25;103658.56;;;12.88;56.18
14089;BME280;7120;52.890;6.040;2023-02-04T13:14:51;103648.72;;;12.75;56.36